createdAt,value
2019-05-26T00:00:08.242Z,66.60
2019-05-26T00:01:05.384Z,66.60
2019-05-26T00:02:05.607Z,66.60
2019-05-26T00:03:08.372Z,66.30
2019-05-26T00:04:08.052Z,66.30
2019-05-26T00:05:04.990Z,66.40
2019-05-26T00:06:05.206Z,66.20
2019-05-26T00:07:07.844Z,65.80
2019-05-26T00:08:05.837Z,65.70
2019-05-26T00:09:08.520Z,65.60
2019-05-26T00:10:08.745Z,65.60
2019-05-26T00:11:05.330Z,65.70
2019-05-26T00:12:05.604Z,65.70
2019-05-26T00:13:05.926Z,65.80
2019-05-26T00:14:10.102Z,65.90
2019-05-26T00:15:07.649Z,65.90
2019-05-26T00:16:05.590Z,65.90
2019-05-26T00:17:05.489Z,65.80
2019-05-26T00:18:05.600Z,65.90
2019-05-26T00:19:08.216Z,65.90
2019-05-26T00:20:05.185Z,65.90
2019-05-26T00:21:05.264Z,66.00
2019-05-26T00:22:18.294Z,66.30
2019-05-26T00:23:05.272Z,66.30
2019-05-26T00:24:07.946Z,66.40
2019-05-26T00:25:06.062Z,66.40
2019-05-26T00:26:05.277Z,66.20
2019-05-26T00:27:05.364Z,66.20
2019-05-26T00:28:05.502Z,66.20
2019-05-26T00:29:05.624Z,66.20
2019-05-26T00:30:05.795Z,66.20
2019-05-26T00:31:06.013Z,66.20
2019-05-26T00:32:05.193Z,66.10
2019-05-26T00:33:05.328Z,66.10
2019-05-26T00:34:08.051Z,66.10
2019-05-26T00:35:05.140Z,66.10
2019-05-26T00:36:05.315Z,66.10
2019-05-26T00:37:05.421Z,66.20
2019-05-26T00:38:05.543Z,66.10
2019-05-26T00:39:05.644Z,66.10
2019-05-26T00:40:05.706Z,66.20
2019-05-26T00:41:05.753Z,66.30
2019-05-26T00:42:05.794Z,66.40
2019-05-26T00:43:05.844Z,66.50
2019-05-26T00:44:04.976Z,66.70
2019-05-26T00:45:07.890Z,66.90
2019-05-26T00:46:05.846Z,66.90
2019-05-26T00:47:07.477Z,67.10
2019-05-26T00:48:05.500Z,67.10
2019-05-26T00:49:08.215Z,67.30
2019-05-26T00:50:05.363Z,67.40
2019-05-26T00:51:10.678Z,67.70
2019-05-26T00:52:08.245Z,67.70
2019-05-26T00:53:07.827Z,67.60
2019-05-26T00:54:08.388Z,67.60
2019-05-26T00:55:05.526Z,67.60
2019-05-26T00:56:08.252Z,67.70
2019-05-26T00:57:07.895Z,67.90
2019-05-26T00:58:05.876Z,67.90
2019-05-26T00:59:04.960Z,67.90
2019-05-26T01:00:07.617Z,68.00
2019-05-26T01:01:05.633Z,68.00
2019-05-26T01:02:05.779Z,68.00
2019-05-26T01:03:08.506Z,68.00
2019-05-26T01:04:05.501Z,68.00
2019-05-26T01:05:08.039Z,68.30
2019-05-26T01:06:05.048Z,68.30
2019-05-26T01:07:05.245Z,68.30
2019-05-26T01:08:07.141Z,68.30
2019-05-26T01:09:07.769Z,68.40
2019-05-26T01:10:05.708Z,68.40
2019-05-26T01:11:08.392Z,68.40
2019-05-26T01:12:07.870Z,68.30
2019-05-26T01:13:05.918Z,68.20
2019-05-26T01:14:05.010Z,68.30
2019-05-26T01:15:05.121Z,68.30
2019-05-26T01:16:07.769Z,68.30
2019-05-26T01:17:08.240Z,68.40
2019-05-26T01:18:07.794Z,68.40
2019-05-26T01:19:10.810Z,68.50
2019-05-26T01:20:05.810Z,68.50
2019-05-26T01:21:08.554Z,68.60
2019-05-26T01:22:08.114Z,68.70
2019-05-26T01:23:07.603Z,68.80
2019-05-26T01:24:05.676Z,68.80
2019-05-26T01:25:05.928Z,68.90
2019-05-26T01:26:05.240Z,69.10
2019-05-26T01:27:07.931Z,69.20
2019-05-26T01:28:05.107Z,69.30
2019-05-26T01:29:05.449Z,69.30
2019-05-26T01:30:05.792Z,69.40
2019-05-26T01:31:08.412Z,69.40
2019-05-26T01:32:05.403Z,69.40
2019-05-26T01:33:05.595Z,69.40
2019-05-26T01:34:05.711Z,69.40
2019-05-26T01:35:08.409Z,69.70
2019-05-26T01:36:07.905Z,69.80
2019-05-26T01:37:05.854Z,69.80
2019-05-26T01:38:04.937Z,69.90
2019-05-26T01:39:08.122Z,69.90
2019-05-26T01:40:05.107Z,69.80
2019-05-26T01:41:07.733Z,70.10
2019-05-26T01:42:05.749Z,70.10
2019-05-26T01:43:08.373Z,70.20
2019-05-26T01:44:07.977Z,70.20
2019-05-26T01:45:05.013Z,70.20
2019-05-26T01:46:07.795Z,70.30
2019-05-26T01:47:05.888Z,70.20
2019-05-26T01:48:04.955Z,70.20
2019-05-26T01:49:07.706Z,70.10
2019-05-26T01:50:05.805Z,70.10
2019-05-26T01:51:05.103Z,70.10
2019-05-26T01:52:07.769Z,70.00
2019-05-26T01:53:05.972Z,70.00
2019-05-26T01:54:05.161Z,69.90
2019-05-26T01:55:05.270Z,69.90
2019-05-26T01:56:05.379Z,70.00
2019-05-26T01:57:10.613Z,70.10
2019-05-26T01:58:05.666Z,70.10
2019-05-26T01:59:08.325Z,70.30
2019-05-26T02:00:05.320Z,70.30
2019-05-26T02:01:10.552Z,70.30
2019-05-26T02:02:05.621Z,70.30
2019-05-26T02:03:05.274Z,70.30
2019-05-26T02:04:08.031Z,70.30
2019-05-26T02:05:04.998Z,70.30
2019-05-26T02:06:05.467Z,70.30
2019-05-26T02:07:08.095Z,70.50
2019-05-26T02:08:05.124Z,70.50
2019-05-26T02:09:07.909Z,70.90
2019-05-26T02:10:08.456Z,71.10
2019-05-26T02:11:05.609Z,71.10
2019-05-26T02:12:05.806Z,71.30
2019-05-26T02:13:05.898Z,71.30
2019-05-26T02:14:10.081Z,71.30
2019-05-26T02:15:07.583Z,71.30
2019-05-26T02:16:05.565Z,71.30
2019-05-26T02:17:08.271Z,71.20
2019-05-26T02:18:07.762Z,71.20
2019-05-26T02:19:08.355Z,71.20
2019-05-26T02:20:08.916Z,71.20
2019-05-26T02:21:05.124Z,71.20
2019-05-26T02:22:07.837Z,71.20
2019-05-26T02:23:08.496Z,71.30
2019-05-26T02:24:05.685Z,71.30
2019-05-26T02:25:08.408Z,71.60
2019-05-26T02:26:07.926Z,71.60
2019-05-26T02:27:05.891Z,71.40
2019-05-26T02:28:07.455Z,71.60
2019-05-26T02:29:05.415Z,71.40
2019-05-26T02:30:07.989Z,71.40
2019-05-26T02:31:05.096Z,71.50
2019-05-26T02:32:07.854Z,71.50
2019-05-26T02:33:06.091Z,71.50
2019-05-26T02:34:05.319Z,71.50
2019-05-26T02:35:05.679Z,71.60
2019-05-26T02:36:10.958Z,71.80
2019-05-26T02:37:10.018Z,71.80
2019-05-26T02:38:08.187Z,71.90
2019-05-26T02:39:05.222Z,71.90
2019-05-26T02:40:05.088Z,72.00
2019-05-26T02:41:05.320Z,72.00
2019-05-26T02:42:05.683Z,72.10
2019-05-26T02:43:05.456Z,72.10
2019-05-26T02:44:05.785Z,72.00
2019-05-26T02:45:10.239Z,71.80
2019-05-26T02:46:07.835Z,71.90
2019-05-26T02:47:05.915Z,71.80
2019-05-26T02:48:05.071Z,71.90
2019-05-26T02:49:05.241Z,71.90
2019-05-26T02:50:05.460Z,71.90
2019-05-26T02:51:05.656Z,72.10
2019-05-26T02:52:05.835Z,72.20
2019-05-26T02:53:07.680Z,72.40
2019-05-26T02:54:05.690Z,72.40
2019-05-26T02:55:08.113Z,72.40
2019-05-26T02:56:05.357Z,72.40
2019-05-26T02:57:08.320Z,72.40
2019-05-26T02:58:05.727Z,72.40
2019-05-26T02:59:05.956Z,72.30
2019-05-26T03:00:05.084Z,72.30
2019-05-26T03:01:07.716Z,72.50
2019-05-26T03:02:08.253Z,72.50
2019-05-26T03:03:05.176Z,72.50
2019-05-26T03:04:07.979Z,72.60
2019-05-26T03:05:04.962Z,72.50
2019-05-26T03:06:05.058Z,72.60
2019-05-26T03:07:05.394Z,72.60
2019-05-26T03:08:05.575Z,72.90
2019-05-26T03:09:23.623Z,73.10
2019-05-26T03:10:07.583Z,73.20
2019-05-26T03:11:08.179Z,73.60
2019-05-26T03:12:07.686Z,73.80
2019-05-26T03:13:05.722Z,73.80
2019-05-26T03:14:05.849Z,73.80
2019-05-26T03:15:08.489Z,73.80
2019-05-26T03:16:05.563Z,73.80
2019-05-26T03:17:05.962Z,73.90
2019-05-26T03:18:05.118Z,74.10
2019-05-26T03:19:05.301Z,74.20
2019-05-26T03:20:08.053Z,74.20
2019-05-26T03:21:07.577Z,74.30
2019-05-26T03:22:05.647Z,74.30
2019-05-26T03:23:08.453Z,74.40
2019-05-26T03:24:10.550Z,74.40
2019-05-26T03:25:05.627Z,74.40
2019-05-26T03:26:05.803Z,74.30
2019-05-26T03:27:08.541Z,74.40
2019-05-26T03:28:05.438Z,74.40
2019-05-26T03:29:05.701Z,74.40
2019-05-26T03:30:08.485Z,74.50
2019-05-26T03:31:05.521Z,74.50
2019-05-26T03:32:08.522Z,74.60
2019-05-26T03:33:08.153Z,74.70
2019-05-26T03:34:05.320Z,74.70
2019-05-26T03:35:05.639Z,74.80
2019-05-26T03:36:11.217Z,75.10
2019-05-26T03:37:07.876Z,75.30
2019-05-26T03:38:08.471Z,75.30
2019-05-26T03:39:07.960Z,75.30
2019-05-26T03:40:05.143Z,75.30
2019-05-26T03:41:08.480Z,75.10
2019-05-26T03:42:08.129Z,75.10
2019-05-26T03:43:07.703Z,75.00
2019-05-26T03:44:10.881Z,75.00
2019-05-26T03:45:07.685Z,75.10
2019-05-26T03:46:05.710Z,75.10
2019-05-26T03:47:05.798Z,75.10
2019-05-26T03:48:05.961Z,75.00
2019-05-26T03:49:05.164Z,75.10
2019-05-26T03:50:05.295Z,75.10
2019-05-26T03:51:08.049Z,75.30
2019-05-26T03:52:07.546Z,75.30
2019-05-26T03:53:05.580Z,75.30
2019-05-26T03:54:08.345Z,75.60
2019-05-26T03:55:05.441Z,75.70
2019-05-26T03:56:08.065Z,76.20
2019-05-26T03:57:05.089Z,76.00
2019-05-26T03:58:05.332Z,76.30
2019-05-26T03:59:08.039Z,76.60
2019-05-26T04:00:05.033Z,76.50
2019-05-26T04:01:07.606Z,76.60
2019-05-26T04:02:05.618Z,76.60
2019-05-26T04:03:05.922Z,76.20
2019-05-26T04:04:05.137Z,75.90
2019-05-26T04:05:05.351Z,75.50
2019-05-26T04:06:05.465Z,75.10
2019-05-26T04:07:08.074Z,74.50
2019-05-26T04:08:05.986Z,74.50
2019-05-26T04:09:05.101Z,74.30
2019-05-26T04:10:06.820Z,74.00
2019-05-26T04:11:07.446Z,73.70
2019-05-26T04:12:05.362Z,73.50
2019-05-26T04:13:05.479Z,73.30
2019-05-26T04:14:05.641Z,73.20
2019-05-26T04:15:08.285Z,72.40
2019-05-26T04:16:05.308Z,72.40
2019-05-26T04:17:05.648Z,72.10
2019-05-26T04:18:05.823Z,71.70
2019-05-26T04:19:05.028Z,71.40
2019-05-26T04:20:07.812Z,70.50
2019-05-26T04:21:06.138Z,70.50
2019-05-26T04:22:05.361Z,70.20
2019-05-26T04:23:05.383Z,69.70
2019-05-26T04:24:10.622Z,68.60
2019-05-26T04:25:06.311Z,68.60
2019-05-26T04:26:05.587Z,68.10
2019-05-26T04:27:05.751Z,67.70
2019-05-26T04:28:05.083Z,67.30
2019-05-26T04:29:05.208Z,66.80
2019-05-26T04:30:08.065Z,65.30
2019-05-26T04:31:05.222Z,65.30
2019-05-26T04:32:05.485Z,64.70
2019-05-26T04:33:05.785Z,64.00
2019-05-26T04:34:07.552Z,62.10
2019-05-26T04:35:05.865Z,62.00
2019-05-26T04:36:12.699Z,61.30
2019-05-26T04:37:05.842Z,61.30
2019-05-26T04:38:05.001Z,60.70
2019-05-26T04:39:05.136Z,60.10
2019-05-26T04:40:27.440Z,59.80
2019-05-26T04:41:06.031Z,59.30
2019-05-26T04:42:10.261Z,58.60
2019-05-26T04:43:05.262Z,58.60
2019-05-26T04:44:05.358Z,58.00
2019-05-26T04:45:05.067Z,57.80
2019-05-26T04:46:07.727Z,57.60
2019-05-26T04:47:06.467Z,57.40
2019-05-26T04:48:13.249Z,56.60
2019-05-26T04:49:07.794Z,56.20
2019-05-26T04:50:05.947Z,56.20
2019-05-26T04:51:07.787Z,56.00
2019-05-26T04:52:05.796Z,56.00
2019-05-26T04:53:07.591Z,55.70
2019-05-26T04:54:05.959Z,55.30
2019-05-26T04:55:05.143Z,54.90
2019-05-26T04:56:05.564Z,54.80
2019-05-26T04:57:08.271Z,53.50
2019-05-26T04:58:07.785Z,53.00
2019-05-26T04:59:05.715Z,53.00
2019-05-26T05:00:06.016Z,53.20
2019-05-26T05:01:05.318Z,53.10
2019-05-26T05:02:08.134Z,52.70
2019-05-26T05:03:05.179Z,52.60
2019-05-26T05:04:05.403Z,52.50
2019-05-26T05:05:08.224Z,52.00
2019-05-26T05:06:05.308Z,52.00
2019-05-26T05:07:05.476Z,52.00
2019-05-26T05:08:08.215Z,51.80
2019-05-26T05:09:07.815Z,51.60
2019-05-26T05:10:05.998Z,51.60
2019-05-26T05:11:05.407Z,51.50
2019-05-26T05:12:05.558Z,51.10
2019-05-26T05:13:08.373Z,50.30
2019-05-26T05:14:07.878Z,50.10
2019-05-26T05:15:06.047Z,50.10
2019-05-26T05:16:05.223Z,49.50
2019-05-26T05:17:05.378Z,49.60
2019-05-26T05:18:08.073Z,49.90
2019-05-26T05:19:05.026Z,49.90
2019-05-26T05:20:07.749Z,49.60
2019-05-26T05:21:08.287Z,49.60
2019-05-26T05:22:05.385Z,49.60
2019-05-26T05:23:08.128Z,49.50
2019-05-26T05:24:05.200Z,49.50
2019-05-26T05:25:15.205Z,49.30
2019-05-26T05:26:08.414Z,48.80
2019-05-26T05:27:05.425Z,48.80
2019-05-26T05:28:08.150Z,48.30
2019-05-26T05:29:07.629Z,48.20
2019-05-26T05:30:08.163Z,47.50
2019-05-26T05:31:10.315Z,47.70
2019-05-26T05:32:07.704Z,47.30
2019-05-26T05:33:08.375Z,47.30
2019-05-26T05:34:05.609Z,47.20
2019-05-26T05:35:05.786Z,47.10
2019-05-26T05:36:07.950Z,47.20
2019-05-26T05:37:05.206Z,47.20
2019-05-26T05:38:07.633Z,46.70
2019-05-26T05:39:08.236Z,46.70
2019-05-26T05:40:10.397Z,46.50
2019-05-26T05:41:08.118Z,46.60
2019-05-26T05:42:07.638Z,46.20
2019-05-26T05:43:10.775Z,46.10
2019-05-26T05:44:05.807Z,46.00
2019-05-26T05:45:05.337Z,46.20
2019-05-26T05:46:05.567Z,46.40
2019-05-26T05:47:05.760Z,46.40
2019-05-26T05:48:05.910Z,46.50
2019-05-26T05:49:15.389Z,46.50
2019-05-26T05:50:05.447Z,46.50
2019-05-26T05:51:04.990Z,46.60
2019-05-26T05:52:05.131Z,46.50
2019-05-26T05:53:08.685Z,46.20
2019-05-26T05:54:13.406Z,46.10
2019-05-26T05:55:05.406Z,46.10
2019-05-26T05:56:05.701Z,45.90
2019-05-26T05:57:05.949Z,46.00
2019-05-26T05:58:07.573Z,45.90
2019-05-26T05:59:08.227Z,45.50
2019-05-26T06:00:05.284Z,45.60
2019-05-26T06:01:10.514Z,44.90
2019-05-26T06:02:08.173Z,44.80
2019-05-26T06:03:09.208Z,44.50
2019-05-26T06:04:12.197Z,44.30
2019-05-26T06:05:05.274Z,44.30
2019-05-26T06:06:13.257Z,43.90
2019-05-26T06:07:05.411Z,43.90
2019-05-26T06:08:05.635Z,43.90
2019-05-26T06:09:08.365Z,43.90
2019-05-26T06:10:05.407Z,43.90
2019-05-26T06:11:17.334Z,43.60
2019-05-26T06:12:10.735Z,43.70
2019-05-26T06:13:08.230Z,43.70
2019-05-26T06:14:07.724Z,42.80
2019-05-26T06:15:08.274Z,43.10
2019-05-26T06:16:07.855Z,43.20
2019-05-26T06:17:10.959Z,42.40
2019-05-26T06:18:05.008Z,42.40
2019-05-26T06:19:07.646Z,43.30
2019-05-26T06:20:05.694Z,43.30
2019-05-26T06:21:08.322Z,43.10
2019-05-26T06:22:05.332Z,43.20
2019-05-26T06:23:05.724Z,43.00
2019-05-26T06:24:11.064Z,42.30
2019-05-26T06:25:10.394Z,42.40
2019-05-26T06:26:07.939Z,42.50
2019-05-26T06:27:08.625Z,42.10
2019-05-26T06:28:05.585Z,42.00
2019-05-26T06:29:08.345Z,42.40
2019-05-26T06:30:07.919Z,42.70
2019-05-26T06:31:05.974Z,42.70
2019-05-26T06:32:05.454Z,42.20
2019-05-26T06:33:05.750Z,42.40
2019-05-26T06:34:08.498Z,42.40
2019-05-26T06:35:05.506Z,42.50
2019-05-26T06:36:08.162Z,43.20
2019-05-26T06:37:07.848Z,43.30
2019-05-26T06:38:08.463Z,43.30
2019-05-26T06:39:05.460Z,43.20
2019-05-26T06:40:08.112Z,42.80
2019-05-26T06:41:10.118Z,42.90
2019-05-26T06:42:07.935Z,42.70
2019-05-26T06:43:05.001Z,42.70
2019-05-26T06:44:05.324Z,42.30
2019-05-26T06:45:08.085Z,41.80
2019-05-26T06:46:05.093Z,41.80
2019-05-26T06:47:05.213Z,42.10
2019-05-26T06:48:10.543Z,42.80
2019-05-26T06:49:08.195Z,42.70
2019-05-26T06:50:05.355Z,42.70
2019-05-26T06:51:08.051Z,42.30
2019-05-26T06:52:05.132Z,42.30
2019-05-26T06:53:07.781Z,42.00
2019-05-26T06:54:08.378Z,41.60
2019-05-26T06:55:08.643Z,41.60
2019-05-26T06:56:05.709Z,41.50
2019-05-26T06:57:05.839Z,41.90
2019-05-26T06:58:10.173Z,41.30
2019-05-26T06:59:08.645Z,41.40
2019-05-26T07:00:05.911Z,41.40
2019-05-26T07:01:07.683Z,41.30
2019-05-26T07:02:05.669Z,41.30
2019-05-26T07:03:05.860Z,41.90
2019-05-26T07:04:05.016Z,42.70
2019-05-26T07:05:05.371Z,42.50
2019-05-26T07:06:05.583Z,42.70
2019-05-26T07:07:05.869Z,42.80
2019-05-26T07:08:07.684Z,42.30
2019-05-26T07:09:08.307Z,41.80
2019-05-26T07:10:05.443Z,41.90
2019-05-26T07:11:05.730Z,42.50
2019-05-26T07:12:11.304Z,42.60
2019-05-26T07:13:05.333Z,42.60
2019-05-26T07:14:10.679Z,42.50
2019-05-26T07:15:08.363Z,42.50
2019-05-26T07:16:05.544Z,42.40
2019-05-26T07:17:08.377Z,42.50
2019-05-26T07:18:07.967Z,42.10
2019-05-26T07:19:07.854Z,42.30
2019-05-26T07:20:06.074Z,42.30
2019-05-26T07:21:07.732Z,42.00
2019-05-26T07:22:08.365Z,41.60
2019-05-26T07:23:11.175Z,41.10
2019-05-26T07:24:05.415Z,41.10
2019-05-26T07:25:05.933Z,40.70
2019-05-26T07:26:05.055Z,40.00
2019-05-26T07:27:05.424Z,39.30
2019-05-26T07:28:05.686Z,39.50
2019-05-26T07:29:08.395Z,38.20
2019-05-26T07:30:07.920Z,38.00
2019-05-26T07:31:05.957Z,37.90
2019-05-26T07:32:07.674Z,38.00
2019-05-26T07:33:08.383Z,38.10
2019-05-26T07:34:05.365Z,38.10
2019-05-26T07:35:05.706Z,37.80
2019-05-26T07:36:05.910Z,37.30
2019-05-26T07:37:07.732Z,38.10
2019-05-26T07:38:05.856Z,38.10
2019-05-26T07:39:04.976Z,38.20
2019-05-26T07:40:07.723Z,38.00
2019-05-26T07:41:05.881Z,37.90
2019-05-26T07:42:11.424Z,37.30
2019-05-26T07:43:05.836Z,37.60
2019-05-26T07:44:05.148Z,37.70
2019-05-26T07:45:05.464Z,37.40
2019-05-26T07:46:08.091Z,37.20
2019-05-26T07:47:10.390Z,37.20
2019-05-26T07:48:05.579Z,37.30
2019-05-26T07:49:05.887Z,37.60
2019-05-26T07:50:10.371Z,37.50
2019-05-26T07:51:10.704Z,36.40
2019-05-26T07:52:10.881Z,36.30
2019-05-26T07:53:06.164Z,36.20
2019-05-26T07:54:05.405Z,36.70
2019-05-26T07:55:05.527Z,37.00
2019-05-26T07:56:05.771Z,37.20
2019-05-26T07:57:08.896Z,36.30
2019-05-26T07:58:12.666Z,36.00
2019-05-26T07:59:05.754Z,36.00
2019-05-26T08:00:07.568Z,36.50
2019-05-26T08:01:05.674Z,36.50
2019-05-26T08:02:08.241Z,36.10
2019-05-26T08:03:05.691Z,36.20
2019-05-26T08:04:08.666Z,36.40
2019-05-26T08:05:05.898Z,36.40
2019-05-26T08:06:07.700Z,36.30
2019-05-26T08:07:08.318Z,36.30
2019-05-26T08:08:13.723Z,36.30
2019-05-26T08:09:05.157Z,36.10
2019-05-26T08:10:07.943Z,34.90
2019-05-26T08:11:05.064Z,34.90
2019-05-26T08:12:08.031Z,34.80
2019-05-26T08:13:05.097Z,34.90
2019-05-26T08:14:05.442Z,34.60
2019-05-26T08:15:05.606Z,34.60
2019-05-26T08:16:05.785Z,33.10
2019-05-26T08:17:05.946Z,33.30
2019-05-26T08:18:05.171Z,33.60
2019-05-26T08:19:13.833Z,34.20
2019-05-26T08:20:05.934Z,34.20
2019-05-26T08:21:07.726Z,34.40
2019-05-26T08:22:08.211Z,34.20
2019-05-26T08:23:06.040Z,34.30
2019-05-26T08:24:07.987Z,34.00
2019-05-26T08:25:07.904Z,33.70
2019-05-26T08:26:05.094Z,33.70
2019-05-26T08:27:05.295Z,34.00
2019-05-26T08:28:05.559Z,34.40
2019-05-26T08:29:05.765Z,34.50
2019-05-26T08:30:06.285Z,33.80
2019-05-26T08:31:13.856Z,34.00
2019-05-26T08:32:08.301Z,33.40
2019-05-26T08:33:05.698Z,33.40
2019-05-26T08:34:05.972Z,33.50
2019-05-26T08:35:07.894Z,34.00
2019-05-26T08:36:08.572Z,34.00
2019-05-26T08:37:05.669Z,34.00
2019-05-26T08:38:05.901Z,34.20
2019-05-26T08:39:07.824Z,34.00
2019-05-26T08:40:11.142Z,34.40
2019-05-26T08:41:07.754Z,33.80
2019-05-26T08:42:05.911Z,33.80
2019-05-26T08:43:07.606Z,33.70
2019-05-26T08:44:05.603Z,33.70
2019-05-26T08:45:07.782Z,33.70
2019-05-26T08:46:05.971Z,33.70
2019-05-26T08:47:10.192Z,34.00
2019-05-26T08:48:07.730Z,34.50
2019-05-26T08:49:05.716Z,34.60
2019-05-26T08:50:06.309Z,34.50
2019-05-26T08:51:05.519Z,34.70
2019-05-26T08:52:10.701Z,34.40
2019-05-26T08:53:08.237Z,34.40
2019-05-26T08:54:05.731Z,34.30
2019-05-26T08:55:06.105Z,33.80
2019-05-26T08:56:07.766Z,33.80
2019-05-26T08:57:10.968Z,33.40
2019-05-26T08:58:05.086Z,33.40
2019-05-26T08:59:05.429Z,33.30
2019-05-26T09:00:05.553Z,34.20
2019-05-26T09:01:08.435Z,34.20
2019-05-26T09:02:05.749Z,34.30
2019-05-26T09:03:05.875Z,34.50
2019-05-26T09:04:07.790Z,33.50
2019-05-26T09:05:08.156Z,34.30
2019-05-26T09:06:08.065Z,34.50
2019-05-26T09:07:05.371Z,34.50
2019-05-26T09:08:08.503Z,34.10
2019-05-26T09:09:05.932Z,34.20
2019-05-26T09:10:07.647Z,34.00
2019-05-26T09:11:05.706Z,34.00
2019-05-26T09:12:05.995Z,33.90
2019-05-26T09:13:05.812Z,33.60
2019-05-26T09:14:05.120Z,33.70
2019-05-26T09:15:06.100Z,33.20
2019-05-26T09:16:07.867Z,33.30
2019-05-26T09:17:08.558Z,33.40
2019-05-26T09:18:05.758Z,33.40
2019-05-26T09:19:08.555Z,33.40
2019-05-26T09:20:05.645Z,33.40
2019-05-26T09:21:08.365Z,33.40
2019-05-26T09:22:11.049Z,33.40
2019-05-26T09:23:07.758Z,33.50
2019-05-26T09:24:06.252Z,33.50
2019-05-26T09:25:05.767Z,33.30
2019-05-26T09:26:11.078Z,34.00
2019-05-26T09:27:10.549Z,33.70
2019-05-26T09:28:05.974Z,33.70
2019-05-26T09:29:08.134Z,33.70
2019-05-26T09:30:05.440Z,33.70
2019-05-26T09:31:05.984Z,33.10
2019-05-26T09:32:07.895Z,33.10
2019-05-26T09:33:06.328Z,33.00
2019-05-26T09:34:06.106Z,33.30
2019-05-26T09:35:08.370Z,33.30
2019-05-26T09:36:08.550Z,33.10
2019-05-26T09:37:08.337Z,32.40
2019-05-26T09:38:07.968Z,33.20
2019-05-26T09:39:08.609Z,33.20
2019-05-26T09:40:05.589Z,33.20
2019-05-26T09:41:05.873Z,32.90
2019-05-26T09:42:05.425Z,33.30
2019-05-26T09:43:16.855Z,33.00
2019-05-26T09:44:05.276Z,33.20
2019-05-26T09:45:08.011Z,33.10
2019-05-26T09:46:04.960Z,33.10
2019-05-26T09:47:07.717Z,32.70
2019-05-26T09:48:06.258Z,32.70
2019-05-26T09:49:08.259Z,32.80
2019-05-26T09:50:07.931Z,32.90
2019-05-26T09:51:06.247Z,33.00
2019-05-26T09:52:05.620Z,33.40
2019-05-26T09:53:08.753Z,32.90
2019-05-26T09:54:08.353Z,32.70
2019-05-26T09:55:05.529Z,32.80
2019-05-26T09:56:05.904Z,32.90
2019-05-26T09:57:05.139Z,32.60
2019-05-26T09:58:05.417Z,33.10
2019-05-26T09:59:08.534Z,33.00
2019-05-26T10:00:05.822Z,33.00
2019-05-26T10:01:05.442Z,32.50
2019-05-26T10:02:05.928Z,32.60
2019-05-26T10:03:05.147Z,32.00
2019-05-26T10:04:08.765Z,32.50
2019-05-26T10:05:08.520Z,33.00
2019-05-26T10:06:05.829Z,33.00
2019-05-26T10:07:05.593Z,33.40
2019-05-26T10:08:08.400Z,33.50
2019-05-26T10:09:05.403Z,33.50
2019-05-26T10:10:08.323Z,32.80
2019-05-26T10:11:05.439Z,32.80
2019-05-26T10:12:05.995Z,32.50
2019-05-26T10:13:10.621Z,32.50
2019-05-26T10:14:05.977Z,32.50
2019-05-26T10:15:05.135Z,32.30
2019-05-26T10:16:08.009Z,32.60
2019-05-26T10:17:05.398Z,32.60
2019-05-26T10:18:05.751Z,32.40
2019-05-26T10:19:11.011Z,32.20
2019-05-26T10:20:05.146Z,32.20
2019-05-26T10:21:05.720Z,31.60
2019-05-26T10:22:06.248Z,31.40
2019-05-26T10:23:05.902Z,31.60
2019-05-26T10:24:05.177Z,31.60
2019-05-26T10:25:08.450Z,31.90
2019-05-26T10:26:06.199Z,31.90
2019-05-26T10:27:08.676Z,32.70
2019-05-26T10:28:08.554Z,31.70
2019-05-26T10:29:05.770Z,31.70
2019-05-26T10:30:06.118Z,31.30
2019-05-26T10:31:05.738Z,31.50
2019-05-26T10:32:08.749Z,30.90
2019-05-26T10:33:06.222Z,30.90
2019-05-26T10:34:05.407Z,30.60
2019-05-26T10:35:05.841Z,30.80
2019-05-26T10:36:05.220Z,31.00
2019-05-26T10:37:05.970Z,31.50
2019-05-26T10:38:05.821Z,30.90
2019-05-26T10:39:05.329Z,30.60
2019-05-26T10:40:06.209Z,30.60
2019-05-26T10:41:06.444Z,30.10
2019-05-26T10:42:05.886Z,30.30
2019-05-26T10:43:07.870Z,30.80
2019-05-26T10:44:06.331Z,30.80
2019-05-26T10:45:08.413Z,29.70
2019-05-26T10:46:05.824Z,29.70
2019-05-26T10:47:05.518Z,29.80
2019-05-26T10:48:11.036Z,30.20
2019-05-26T10:49:10.543Z,30.20
2019-05-26T10:50:05.998Z,30.20
2019-05-26T10:51:07.547Z,30.30
2019-05-26T10:52:06.273Z,30.80
2019-05-26T10:53:13.527Z,29.90
2019-05-26T10:54:06.131Z,29.90
2019-05-26T10:55:05.948Z,30.10
2019-05-26T10:56:05.518Z,30.30
2019-05-26T10:57:06.301Z,30.00
2019-05-26T10:58:10.919Z,28.90
2019-05-26T10:59:08.039Z,28.90
2019-05-26T11:00:05.753Z,28.90
2019-05-26T11:01:08.899Z,30.00
2019-05-26T11:02:10.487Z,30.30
2019-05-26T11:03:05.938Z,30.30
2019-05-26T11:04:05.640Z,30.50
2019-05-26T11:05:06.537Z,31.20
2019-05-26T11:06:06.491Z,31.10
2019-05-26T11:07:05.934Z,30.50
2019-05-26T11:08:11.016Z,31.00
2019-05-26T11:09:05.723Z,31.10
2019-05-26T11:10:06.652Z,31.30
2019-05-26T11:11:06.760Z,30.70
2019-05-26T11:12:06.141Z,30.30
2019-05-26T11:13:05.876Z,30.00
2019-05-26T11:14:05.925Z,29.60
2019-05-26T11:15:08.353Z,28.20
2019-05-26T11:16:06.631Z,28.20
2019-05-26T11:17:06.565Z,28.50
2019-05-26T11:18:11.600Z,29.70
2019-05-26T11:19:11.428Z,30.30
2019-05-26T11:20:06.178Z,30.30
2019-05-26T11:21:05.998Z,30.30
2019-05-26T11:22:05.826Z,30.40
2019-05-26T11:23:05.730Z,30.60
2019-05-26T11:24:06.566Z,30.40
2019-05-26T11:25:09.020Z,29.70
2019-05-26T11:26:05.711Z,29.70
2019-05-26T11:27:13.482Z,29.30
2019-05-26T11:28:05.790Z,29.40
2019-05-26T11:29:06.475Z,29.90
2019-05-26T11:30:09.999Z,29.70
2019-05-26T11:31:05.682Z,29.60
2019-05-26T11:32:06.615Z,29.30
2019-05-26T11:33:06.515Z,29.60
2019-05-26T11:34:06.139Z,29.90
2019-05-26T11:35:05.796Z,29.50
2019-05-26T11:36:09.152Z,30.00
2019-05-26T11:37:05.859Z,30.00
2019-05-26T11:38:05.573Z,30.50
2019-05-26T11:39:06.399Z,30.80
2019-05-26T11:40:06.333Z,30.30
2019-05-26T11:41:06.055Z,30.60
2019-05-26T11:42:14.989Z,30.70
2019-05-26T11:43:17.545Z,30.80
2019-05-26T11:44:18.739Z,30.70
2019-05-26T11:45:06.937Z,30.60
2019-05-26T11:46:05.682Z,30.90
2019-05-26T11:47:11.594Z,29.30
2019-05-26T11:48:06.486Z,29.30
2019-05-26T11:49:06.292Z,29.60
2019-05-26T11:50:06.760Z,29.70
2019-05-26T11:51:06.645Z,28.90
2019-05-26T11:52:06.691Z,28.30
2019-05-26T11:53:06.423Z,28.80
2019-05-26T11:54:08.893Z,29.40
2019-05-26T11:55:06.915Z,29.40
2019-05-26T11:56:05.819Z,29.50
2019-05-26T11:57:06.629Z,29.30
2019-05-26T11:58:09.041Z,29.60
2019-05-26T11:59:05.667Z,29.60
2019-05-26T12:00:11.164Z,30.20
2019-05-26T12:01:05.923Z,30.20
2019-05-26T12:02:05.630Z,30.10
2019-05-26T12:03:07.363Z,30.50
2019-05-26T12:04:06.074Z,30.80
2019-05-26T12:05:18.170Z,30.70
2019-05-26T12:06:05.829Z,30.80
2019-05-26T12:07:05.786Z,30.60
2019-05-26T12:08:05.736Z,29.70
2019-05-26T12:09:06.533Z,30.00
2019-05-26T12:10:06.306Z,29.40
2019-05-26T12:11:05.921Z,28.90
2019-05-26T12:12:08.142Z,29.10
2019-05-26T12:13:05.649Z,29.10
2019-05-26T12:14:08.778Z,28.60
2019-05-26T12:15:06.545Z,28.70
2019-05-26T12:16:11.259Z,28.90
2019-05-26T12:17:05.489Z,28.90
2019-05-26T12:18:05.782Z,29.10
2019-05-26T12:19:06.168Z,29.20
2019-05-26T12:20:06.267Z,29.40
2019-05-26T12:21:05.648Z,29.30
2019-05-26T12:22:06.049Z,30.00
2019-05-26T12:23:05.513Z,30.10
2019-05-26T12:24:13.939Z,29.50
2019-05-26T12:25:06.153Z,29.40
2019-05-26T12:26:05.623Z,28.10
2019-05-26T12:27:08.970Z,28.30
2019-05-26T12:28:06.058Z,28.30
2019-05-26T12:29:08.254Z,28.40
2019-05-26T12:30:05.816Z,28.50
2019-05-26T12:31:06.387Z,28.30
2019-05-26T12:32:05.921Z,28.70
2019-05-26T12:33:08.114Z,29.40
2019-05-26T12:34:05.281Z,29.40
2019-05-26T12:35:05.568Z,29.30
2019-05-26T12:36:08.750Z,28.90
2019-05-26T12:37:08.671Z,29.00
2019-05-26T12:38:06.107Z,29.00
2019-05-26T12:39:08.450Z,28.90
2019-05-26T12:40:05.770Z,28.90
2019-05-26T12:41:08.547Z,29.20
2019-05-26T12:42:05.925Z,29.20
2019-05-26T12:43:05.472Z,29.90
2019-05-26T12:44:06.059Z,30.00
2019-05-26T12:45:08.157Z,29.90
2019-05-26T12:46:05.298Z,29.90
2019-05-26T12:47:08.404Z,29.90
2019-05-26T12:48:05.889Z,29.80
2019-05-26T12:49:05.858Z,30.00
2019-05-26T12:50:07.806Z,30.00
2019-05-26T12:51:06.121Z,30.00
2019-05-26T12:52:06.132Z,30.20